createdAt,value
2022-08-17T00:01:24.182Z,2.80
2022-08-17T00:03:53.777Z,2.50
2022-08-17T00:06:28.863Z,2.78
2022-08-17T00:08:58.585Z,2.50
2022-08-17T00:11:30.139Z,2.30
2022-08-17T00:14:09.532Z,2.50
2022-08-17T00:16:50.464Z,2.78
2022-08-17T00:19:25.258Z,2.70
2022-08-17T00:22:29.584Z,2.60
2022-08-17T00:24:42.530Z,2.42
2022-08-17T00:27:08.967Z,2.92
2022-08-17T00:29:35.441Z,2.50
2022-08-17T00:33:10.035Z,2.33
2022-08-17T00:34:50.132Z,2.80
2022-08-17T00:37:17.010Z,2.33
2022-08-17T00:39:44.001Z,2.08
2022-08-17T00:42:16.220Z,2.33
2022-08-17T00:45:05.727Z,2.63
2022-08-17T00:47:52.152Z,2.07
2022-08-17T00:50:43.176Z,2.45
2022-08-17T00:53:33.323Z,2.53
2022-08-17T00:56:27.339Z,2.45
2022-08-17T00:59:17.655Z,2.20
2022-08-17T01:04:13.696Z,2.80
2022-08-17T01:06:42.615Z,2.70
2022-08-17T01:09:11.304Z,2.85
2022-08-17T01:11:40.566Z,2.38
2022-08-17T01:14:08.942Z,2.53
2022-08-17T01:16:37.337Z,2.30
2022-08-17T01:19:29.193Z,2.70
2022-08-17T01:22:11.144Z,2.47
2022-08-17T01:24:50.734Z,2.53
2022-08-17T01:27:18.423Z,2.78
2022-08-17T01:29:53.468Z,2.33
2022-08-17T01:32:20.036Z,2.30
2022-08-17T01:34:50.447Z,2.60
2022-08-17T01:37:19.719Z,2.58
2022-08-17T01:39:54.187Z,2.40
2022-08-17T01:42:26.617Z,2.50
2022-08-17T01:44:57.535Z,2.30
2022-08-17T01:47:24.803Z,2.70
2022-08-17T01:49:51.343Z,2.72
2022-08-17T01:52:18.142Z,2.65
2022-08-17T01:54:47.696Z,2.45
2022-08-17T01:57:14.550Z,2.20
2022-08-17T01:59:41.006Z,2.70
2022-08-17T02:02:07.546Z,2.33
2022-08-17T02:04:34.573Z,2.55
2022-08-17T02:07:01.113Z,2.78
2022-08-17T02:09:30.314Z,2.88
2022-08-17T02:11:58.730Z,2.40
2022-08-17T02:14:26.300Z,2.70
2022-08-17T02:16:53.727Z,2.40
2022-08-17T02:19:20.588Z,2.67
2022-08-17T02:21:49.613Z,2.72
2022-08-17T02:24:59.963Z,2.72
2022-08-17T02:27:08.106Z,2.60
2022-08-17T02:29:34.683Z,2.35
2022-08-17T02:32:01.711Z,2.40
2022-08-17T02:34:28.779Z,2.40
2022-08-17T02:36:56.566Z,2.28
2022-08-17T02:39:23.044Z,2.20
2022-08-17T02:41:49.651Z,2.33
2022-08-17T02:44:38.998Z,2.22
2022-08-17T02:47:03.256Z,2.90
2022-08-17T02:49:30.292Z,2.22
2022-08-17T02:51:57.633Z,1.95
2022-08-17T02:54:40.567Z,2.80
2022-08-17T02:57:08.603Z,2.58
2022-08-17T02:59:35.195Z,2.63
2022-08-17T03:02:03.928Z,2.40
2022-08-17T03:04:31.110Z,2.65
2022-08-17T03:07:01.573Z,2.92
2022-08-17T03:09:28.064Z,2.40
2022-08-17T03:11:56.036Z,2.33
2022-08-17T03:14:26.408Z,2.40
2022-08-17T03:19:19.576Z,2.55
2022-08-17T03:21:46.237Z,3.10
2022-08-17T03:24:21.532Z,2.80
2022-08-17T03:26:55.215Z,2.80
2022-08-17T03:29:21.772Z,3.17
2022-08-17T03:31:49.744Z,2.50
2022-08-17T03:34:17.445Z,3.00
2022-08-17T03:36:44.324Z,3.38
2022-08-17T03:39:10.801Z,2.95
2022-08-17T03:41:39.065Z,2.88
2022-08-17T03:44:05.552Z,3.00
2022-08-17T03:46:50.715Z,3.22
2022-08-17T03:49:35.842Z,2.67
2022-08-17T03:52:21.009Z,2.58
2022-08-17T03:55:06.161Z,2.30
2022-08-17T03:57:32.631Z,2.67
2022-08-17T03:59:59.724Z,2.50
2022-08-17T04:02:32.312Z,2.88
2022-08-17T04:04:59.574Z,3.10
2022-08-17T04:07:29.633Z,2.83
2022-08-17T04:09:57.762Z,2.85
2022-08-17T04:12:24.744Z,2.90
2022-08-17T04:14:54.709Z,2.92
2022-08-17T04:17:24.787Z,3.00
2022-08-17T04:19:52.222Z,2.93
2022-08-17T04:22:32.537Z,2.70
2022-08-17T04:25:32.101Z,3.47
2022-08-17T04:27:59.559Z,2.63
2022-08-17T04:30:28.363Z,3.15
2022-08-17T04:33:07.212Z,4.22
2022-08-17T04:35:40.098Z,4.60
2022-08-17T04:38:10.667Z,5.90
2022-08-17T04:40:56.369Z,5.50
2022-08-17T04:43:25.109Z,4.53
2022-08-17T04:45:56.913Z,4.90
2022-08-17T04:48:36.456Z,6.22
2022-08-17T04:51:38.229Z,5.72
2022-08-17T04:54:16.480Z,5.53
2022-08-17T04:56:43.533Z,5.75
2022-08-17T04:59:13.276Z,5.60
2022-08-17T05:01:41.030Z,6.15
2022-08-17T05:04:21.042Z,5.85
2022-08-17T05:06:58.771Z,5.40
2022-08-17T05:09:25.272Z,5.72
2022-08-17T05:11:52.191Z,5.30
2022-08-17T05:14:18.649Z,6.68
2022-08-17T05:16:48.106Z,5.95
2022-08-17T05:19:14.605Z,5.90
2022-08-17T05:21:41.284Z,5.68
2022-08-17T05:24:10.998Z,5.40
2022-08-17T05:26:54.143Z,5.53
2022-08-17T05:29:21.769Z,5.07
2022-08-17T05:32:39.509Z,5.45
2022-08-17T05:34:59.847Z,4.82
2022-08-17T05:37:26.325Z,5.50
2022-08-17T05:39:53.769Z,4.68
2022-08-17T05:42:20.800Z,5.10
2022-08-17T05:44:47.232Z,4.82
2022-08-17T05:47:13.873Z,5.80
2022-08-17T05:49:40.415Z,5.75
2022-08-17T05:52:26.267Z,5.82
2022-08-17T05:55:05.141Z,5.97
2022-08-17T05:57:36.414Z,6.93
2022-08-17T06:00:14.827Z,7.38
2022-08-17T06:03:00.658Z,6.75
2022-08-17T06:05:50.501Z,6.95
2022-08-17T06:08:42.255Z,7.35
2022-08-17T06:11:26.106Z,7.43
2022-08-17T06:13:52.543Z,6.82
2022-08-17T06:16:33.740Z,6.30
2022-08-17T06:19:27.647Z,7.03
2022-08-17T06:21:54.883Z,7.63
2022-08-17T06:24:42.279Z,7.50
2022-08-17T06:27:18.665Z,6.95
2022-08-17T06:30:08.093Z,7.60
2022-08-17T06:32:48.493Z,6.60
2022-08-17T06:35:19.174Z,6.28
2022-08-17T06:37:51.224Z,6.15
2022-08-17T06:40:33.132Z,6.67
2022-08-17T06:43:19.275Z,6.65
2022-08-17T06:45:51.855Z,6.20
2022-08-17T06:48:32.309Z,5.60
2022-08-17T06:51:03.367Z,5.25
2022-08-17T06:53:59.527Z,4.78
2022-08-17T06:56:52.953Z,4.50
2022-08-17T06:59:34.797Z,3.78
2022-08-17T07:02:53.520Z,3.97
2022-08-17T07:05:24.081Z,3.90
2022-08-17T07:08:02.456Z,4.35
2022-08-17T07:10:43.224Z,4.95
2022-08-17T07:13:33.863Z,4.80
2022-08-17T07:16:13.083Z,4.43
2022-08-17T07:18:39.678Z,4.03
2022-08-17T07:21:18.530Z,3.78
2022-08-17T07:24:09.680Z,3.90
2022-08-17T07:27:12.666Z,3.60
2022-08-17T07:29:44.279Z,3.92
2022-08-17T07:32:14.174Z,3.80
2022-08-17T07:35:11.377Z,3.75
2022-08-17T07:37:49.023Z,3.38
2022-08-17T07:40:22.601Z,3.33
2022-08-17T07:43:18.801Z,3.40
2022-08-17T07:46:30.139Z,3.45
2022-08-17T07:49:16.976Z,3.17
2022-08-17T07:51:43.630Z,3.83
2022-08-17T07:54:16.481Z,3.85
2022-08-17T07:56:47.870Z,3.83
2022-08-17T07:59:23.098Z,4.25
2022-08-17T08:01:57.684Z,5.07
2022-08-17T08:05:12.799Z,3.85
2022-08-17T08:07:50.300Z,4.10
2022-08-17T08:10:45.062Z,3.83
2022-08-17T08:13:25.314Z,4.30
2022-08-17T08:15:55.122Z,4.18
2022-08-17T08:18:38.717Z,4.15
2022-08-17T08:22:02.301Z,4.07
2022-08-17T08:24:56.556Z,3.90
2022-08-17T08:27:54.390Z,3.75
2022-08-17T08:30:21.950Z,3.75
2022-08-17T08:33:27.273Z,3.65
2022-08-17T08:36:02.466Z,3.60
2022-08-17T08:38:52.218Z,4.07
2022-08-17T08:41:50.791Z,3.58
2022-08-17T08:45:00.785Z,3.45
2022-08-17T08:47:51.342Z,4.45
2022-08-17T08:50:37.018Z,3.95
2022-08-17T08:53:14.229Z,3.80
2022-08-17T08:55:50.770Z,4.05
2022-08-17T08:58:31.592Z,3.95
2022-08-17T09:01:18.527Z,4.07
2022-08-17T09:04:25.016Z,3.72
2022-08-17T09:07:06.693Z,3.75
2022-08-17T09:09:56.156Z,3.10
2022-08-17T09:12:41.569Z,3.30
2022-08-17T09:15:20.007Z,3.03
2022-08-17T09:18:58.825Z,3.40
2022-08-17T09:23:34.233Z,3.65
2022-08-17T09:26:14.461Z,3.45
2022-08-17T09:28:48.110Z,3.10
2022-08-17T09:31:20.234Z,3.17
2022-08-17T09:33:48.848Z,3.03
2022-08-17T09:36:25.522Z,3.40
2022-08-17T09:39:10.425Z,2.53
2022-08-17T09:41:52.691Z,3.10
2022-08-17T09:44:40.004Z,3.40
2022-08-17T09:47:30.501Z,3.67
2022-08-17T09:50:05.907Z,3.13
2022-08-17T09:52:32.520Z,3.17
2022-08-17T09:55:01.030Z,3.50
2022-08-17T09:57:52.955Z,2.72
2022-08-17T10:00:33.525Z,3.20
2022-08-17T10:03:19.723Z,3.08
2022-08-17T10:05:46.524Z,3.75
2022-08-17T10:08:27.757Z,3.33
2022-08-17T10:11:48.266Z,3.55
2022-08-17T10:14:44.089Z,3.28
2022-08-17T10:17:47.533Z,3.33
2022-08-17T10:20:20.330Z,3.38
2022-08-17T10:23:11.743Z,3.38
2022-08-17T10:26:03.881Z,3.50
2022-08-17T10:28:40.149Z,4.40
2022-08-17T10:34:30.195Z,4.27
2022-08-17T10:37:22.561Z,4.00
2022-08-17T10:39:57.301Z,3.92
2022-08-17T10:42:33.034Z,3.63
2022-08-17T10:45:26.563Z,3.85
2022-08-17T10:48:04.335Z,3.60
2022-08-17T10:50:58.729Z,4.45
2022-08-17T10:53:31.572Z,4.50
2022-08-17T10:56:13.607Z,4.55
2022-08-17T10:58:58.301Z,4.88
2022-08-17T11:01:34.110Z,5.18
2022-08-17T11:04:09.768Z,5.10
2022-08-17T11:07:01.882Z,4.97
2022-08-17T11:09:56.576Z,4.85
2022-08-17T11:12:54.396Z,5.45
2022-08-17T11:16:00.631Z,5.35
2022-08-17T11:18:47.155Z,5.07
2022-08-17T11:21:39.727Z,4.63
2022-08-17T11:24:32.869Z,3.80
2022-08-17T11:27:09.061Z,3.75
2022-08-17T11:29:59.540Z,4.72
2022-08-17T11:32:47.793Z,3.43
2022-08-17T11:35:21.303Z,3.83
2022-08-17T11:38:02.874Z,3.53
2022-08-17T11:40:36.459Z,3.10
2022-08-17T11:43:29.223Z,3.15
2022-08-17T11:46:10.981Z,2.88
2022-08-17T11:49:17.902Z,2.65
2022-08-17T11:52:00.281Z,2.80
2022-08-17T11:54:33.594Z,2.65
2022-08-17T11:57:25.511Z,2.58
2022-08-17T12:00:06.584Z,2.72
2022-08-17T12:02:38.695Z,2.67
2022-08-17T12:05:12.382Z,2.85
2022-08-17T12:07:44.573Z,2.97
2022-08-17T12:10:13.323Z,3.00
2022-08-17T12:12:44.086Z,2.30
2022-08-17T12:15:21.944Z,3.25
2022-08-17T12:17:53.683Z,3.05
2022-08-17T12:20:27.718Z,2.70
2022-08-17T12:23:09.506Z,2.42
2022-08-17T12:25:44.275Z,3.13
2022-08-17T12:28:28.169Z,2.67
2022-08-17T12:31:00.237Z,2.92
2022-08-17T12:33:28.919Z,3.38
2022-08-17T12:36:05.744Z,2.92
2022-08-17T12:38:35.901Z,2.85
2022-08-17T12:41:24.564Z,2.88
2022-08-17T12:44:02.067Z,2.58
2022-08-17T12:46:33.452Z,2.45
2022-08-17T12:49:29.981Z,2.88
2022-08-17T12:52:12.284Z,2.40
2022-08-17T12:54:45.559Z,2.55
2022-08-17T12:57:17.113Z,2.67
2022-08-17T12:59:50.511Z,2.67
2022-08-17T13:03:00.551Z,3.03
2022-08-17T13:05:31.315Z,2.72
2022-08-17T13:07:59.932Z,2.50
2022-08-17T13:10:32.766Z,2.47
2022-08-17T13:13:05.804Z,2.40
2022-08-17T13:15:44.713Z,2.50
2022-08-17T13:18:33.644Z,2.88
2022-08-17T13:21:00.960Z,2.60
2022-08-17T13:23:29.403Z,2.72
2022-08-17T13:26:07.834Z,2.58
2022-08-17T13:28:36.736Z,2.33
2022-08-17T13:31:26.159Z,2.47
2022-08-17T13:33:52.685Z,2.60
2022-08-17T13:36:33.326Z,2.10
2022-08-17T13:39:14.095Z,2.30
2022-08-17T13:41:40.709Z,2.20
2022-08-17T13:44:30.382Z,2.45
2022-08-17T13:46:57.586Z,2.10
2022-08-17T13:49:24.362Z,1.90
2022-08-17T13:52:32.833Z,2.00
2022-08-17T13:55:04.686Z,2.30
2022-08-17T13:57:31.614Z,2.15
2022-08-17T14:00:20.204Z,2.10
2022-08-17T14:02:46.649Z,2.58
2022-08-17T14:05:13.326Z,2.22
2022-08-17T14:07:41.083Z,2.00
2022-08-17T14:10:07.850Z,2.22
2022-08-17T14:12:35.545Z,2.28
2022-08-17T14:15:02.246Z,2.65
2022-08-17T14:17:34.954Z,1.92
2022-08-17T14:20:09.326Z,2.28
2022-08-17T14:22:38.854Z,1.90
2022-08-17T14:25:10.515Z,2.22
2022-08-17T14:27:52.245Z,2.10
2022-08-17T14:30:26.768Z,1.90
2022-08-17T14:32:56.711Z,2.03
2022-08-17T14:35:23.951Z,2.30
2022-08-17T14:37:51.896Z,2.20
2022-08-17T14:40:20.679Z,1.70
2022-08-17T14:42:47.483Z,1.90
2022-08-17T14:45:27.402Z,2.00
2022-08-17T14:48:01.691Z,2.10
2022-08-17T14:50:28.180Z,2.53
2022-08-17T14:52:56.503Z,2.00
2022-08-17T14:55:24.880Z,2.47
2022-08-17T14:57:51.519Z,2.33
2022-08-17T15:00:18.380Z,2.08
2022-08-17T15:02:48.147Z,2.58
2022-08-17T15:05:16.942Z,2.10
2022-08-17T15:07:44.471Z,2.43
2022-08-17T15:10:15.163Z,2.40
2022-08-17T15:12:42.114Z,2.20
2022-08-17T15:15:12.499Z,2.30
2022-08-17T15:17:54.763Z,1.92
2022-08-17T15:20:24.819Z,1.90
2022-08-17T15:22:58.787Z,1.60
2022-08-17T15:25:27.550Z,2.17
2022-08-17T15:27:55.792Z,1.52
2022-08-17T15:30:22.373Z,1.80
2022-08-17T15:32:54.134Z,2.13
2022-08-17T15:35:28.169Z,1.90
2022-08-17T15:38:11.795Z,1.95
2022-08-17T15:40:43.177Z,1.80
2022-08-17T15:43:14.470Z,2.28
2022-08-17T15:45:41.773Z,2.08
2022-08-17T15:48:08.933Z,2.00
2022-08-17T15:50:35.910Z,1.92
2022-08-17T15:53:03.547Z,1.60
2022-08-17T15:55:31.704Z,2.00
2022-08-17T15:57:58.605Z,1.85
2022-08-17T16:00:25.957Z,2.03
2022-08-17T16:03:45.127Z,1.60
2022-08-17T16:05:40.648Z,2.30
2022-08-17T16:08:08.013Z,2.13
2022-08-17T16:10:35.885Z,1.90
2022-08-17T16:13:03.922Z,2.30
2022-08-17T16:15:31.463Z,2.15
2022-08-17T16:17:57.966Z,1.83
2022-08-17T16:20:24.560Z,1.77
2022-08-17T16:22:51.471Z,2.00
2022-08-17T16:25:21.819Z,1.92
2022-08-17T16:27:53.232Z,1.92
2022-08-17T16:30:23.728Z,2.13
2022-08-17T16:32:51.614Z,1.88
2022-08-17T16:35:21.122Z,2.40
2022-08-17T16:37:48.494Z,1.80
2022-08-17T16:40:16.634Z,2.28
2022-08-17T16:42:45.175Z,2.13
2022-08-17T16:45:18.703Z,2.28
2022-08-17T16:47:45.884Z,2.00
2022-08-17T16:50:14.554Z,2.20
2022-08-17T16:52:42.120Z,2.45
2022-08-17T16:55:13.402Z,1.88
2022-08-17T16:57:47.488Z,2.20
2022-08-17T17:00:19.445Z,2.08
2022-08-17T17:02:49.515Z,2.20
2022-08-17T17:05:25.396Z,2.40
2022-08-17T17:08:15.900Z,1.80
2022-08-17T17:10:51.301Z,2.17
2022-08-17T17:13:27.438Z,2.17
2022-08-17T17:16:00.121Z,2.10
2022-08-17T17:18:39.026Z,2.03
2022-08-17T17:21:12.186Z,2.38
2022-08-17T17:23:59.322Z,2.20
2022-08-17T17:26:40.568Z,2.08
2022-08-17T17:29:48.264Z,2.20
2022-08-17T17:33:09.197Z,2.10
2022-08-17T17:35:46.875Z,2.10
2022-08-17T17:38:21.361Z,2.30
2022-08-17T17:40:52.030Z,2.60
2022-08-17T17:43:38.463Z,2.33
2022-08-17T17:46:28.496Z,2.20
2022-08-17T17:48:57.256Z,2.35
2022-08-17T17:52:06.860Z,2.40
2022-08-17T17:54:49.078Z,2.40
2022-08-17T17:57:36.952Z,2.25
2022-08-17T18:00:13.925Z,2.40
2022-08-17T18:03:15.311Z,2.50
2022-08-17T18:06:01.170Z,2.53
2022-08-17T18:08:56.038Z,2.33
2022-08-17T18:11:59.333Z,2.35
2022-08-17T18:14:37.332Z,2.50
2022-08-17T18:17:04.028Z,2.40
2022-08-17T18:19:31.786Z,2.60
2022-08-17T18:22:14.404Z,2.50
2022-08-17T18:24:47.227Z,2.30
2022-08-17T18:27:31.385Z,2.30
2022-08-17T18:30:03.432Z,2.55
2022-08-17T18:32:40.684Z,2.40
2022-08-17T18:35:30.577Z,2.63
2022-08-17T18:38:20.465Z,2.47
2022-08-17T18:43:24.611Z,2.70
2022-08-17T18:45:54.331Z,2.13
2022-08-17T18:48:48.666Z,2.00
2022-08-17T18:51:41.493Z,2.40
2022-08-17T18:54:25.379Z,2.53
2022-08-17T18:56:57.903Z,2.40
2022-08-17T18:59:29.320Z,2.05
2022-08-17T19:02:22.111Z,2.60
2022-08-17T19:05:26.396Z,2.80
2022-08-17T19:07:53.622Z,2.70
2022-08-17T19:10:28.671Z,2.30
2022-08-17T19:13:13.936Z,2.60
2022-08-17T19:16:13.834Z,2.28
2022-08-17T19:18:48.417Z,2.15
2022-08-17T19:21:21.739Z,2.50
2022-08-17T19:23:59.034Z,2.60
2022-08-17T19:26:54.283Z,2.47
2022-08-17T19:29:19.500Z,2.58
2022-08-17T19:31:48.874Z,2.67
2022-08-17T19:34:17.510Z,2.88
2022-08-17T19:37:08.782Z,2.58
2022-08-17T19:40:08.768Z,2.78
2022-08-17T19:42:51.304Z,2.90
2022-08-17T19:45:45.480Z,2.90
2022-08-17T19:48:29.558Z,2.58
2022-08-17T19:51:19.873Z,2.58
2022-08-17T19:56:47.425Z,2.53
2022-08-17T19:59:22.971Z,2.80
2022-08-17T20:02:01.336Z,2.90
2022-08-17T20:04:32.437Z,2.70
2022-08-17T20:07:08.371Z,2.58
2022-08-17T20:09:39.068Z,2.75
2022-08-17T20:12:17.800Z,2.90
2022-08-17T20:14:53.637Z,2.40
2022-08-17T20:17:23.949Z,3.00
2022-08-17T20:20:19.655Z,2.30
2022-08-17T20:22:52.103Z,2.80
2022-08-17T20:25:36.988Z,2.75
2022-08-17T20:28:17.667Z,2.83
2022-08-17T20:30:44.460Z,2.90
2022-08-17T20:33:33.402Z,2.72
2022-08-17T20:36:19.530Z,2.70
2022-08-17T20:38:47.955Z,2.92
2022-08-17T20:41:17.590Z,2.67
2022-08-17T20:44:10.544Z,3.03
2022-08-17T20:46:37.368Z,2.88
2022-08-17T20:49:31.808Z,2.90
2022-08-17T20:52:13.331Z,3.30
2022-08-17T20:54:55.756Z,2.92
2022-08-17T20:57:34.267Z,2.90
2022-08-17T21:00:15.349Z,2.55
2022-08-17T21:02:48.311Z,3.10
2022-08-17T21:06:15.341Z,2.88
2022-08-17T21:08:53.452Z,2.85
2022-08-17T21:11:56.625Z,2.85
2022-08-17T21:14:32.452Z,3.00
2022-08-17T21:17:15.012Z,3.00
2022-08-17T21:20:15.621Z,3.40
2022-08-17T21:23:09.942Z,2.90
2022-08-17T21:25:57.113Z,2.80
2022-08-17T21:29:01.102Z,3.30
2022-08-17T21:31:36.854Z,3.03
2022-08-17T21:34:15.524Z,2.63
2022-08-17T21:36:43.608Z,3.20
2022-08-17T21:39:14.054Z,2.80
2022-08-17T21:41:53.750Z,2.88
2022-08-17T21:44:32.078Z,3.03
2022-08-17T21:47:24.488Z,3.13
2022-08-17T21:49:56.436Z,3.05
2022-08-17T21:52:26.755Z,3.25
2022-08-17T21:57:27.609Z,3.35
2022-08-17T21:59:57.225Z,2.80
2022-08-17T22:02:34.962Z,3.22
2022-08-17T22:05:06.614Z,2.88
2022-08-17T22:07:41.497Z,3.38
2022-08-17T22:10:40.314Z,2.80
2022-08-17T22:13:17.087Z,2.67
2022-08-17T22:15:48.342Z,2.83
2022-08-17T22:18:21.742Z,3.17
2022-08-17T22:20:54.928Z,2.95
2022-08-17T22:23:53.288Z,3.08
2022-08-17T22:26:22.960Z,3.05
2022-08-17T22:28:52.191Z,3.50
2022-08-17T22:31:21.571Z,3.22
2022-08-17T22:33:51.529Z,3.00
2022-08-17T22:36:38.661Z,3.28
2022-08-17T22:39:08.327Z,3.42
2022-08-17T22:41:41.051Z,3.08
2022-08-17T22:44:14.550Z,3.20
2022-08-17T22:46:59.199Z,3.10
2022-08-17T22:49:34.089Z,3.22
2022-08-17T22:52:15.811Z,3.50
2022-08-17T22:55:09.482Z,3.03
2022-08-17T22:57:56.318Z,3.53
2022-08-17T23:00:37.990Z,3.20
2022-08-17T23:03:09.546Z,2.97
2022-08-17T23:05:37.943Z,2.80
2022-08-17T23:08:05.558Z,3.10
2022-08-17T23:10:32.201Z,3.22
2022-08-17T23:13:00.348Z,3.53
2022-08-17T23:15:32.966Z,3.58
2022-08-17T23:18:04.754Z,3.60
2022-08-17T23:20:37.251Z,3.97
2022-08-17T23:23:08.974Z,3.40
2022-08-17T23:25:36.353Z,3.58
2022-08-17T23:28:06.730Z,3.88
2022-08-17T23:30:40.890Z,4.15
2022-08-17T23:33:15.081Z,4.10
2022-08-17T23:35:42.765Z,4.20
2022-08-17T23:38:11.593Z,4.22
2022-08-17T23:40:39.555Z,4.38
2022-08-17T23:43:23.356Z,4.57
2022-08-17T23:45:54.117Z,4.55
2022-08-17T23:48:33.024Z,4.63
2022-08-17T23:51:07.193Z,4.88
2022-08-17T23:53:34.563Z,3.90
2022-08-17T23:56:03.909Z,4.15
2022-08-17T23:58:38.312Z,4.07
